Time;durP1;ratioP1;P1;durP2;ratioP2;P2;SDS_P1;SDS_P2;PMS_P1;PMS_P2;Temp;Humidity;BMP_temperature;BMP_pressure;BME280_temperature;BME280_humidity;BME280_pressure;Samples;Min_cycle;Max_cycle;Signal;HPM_P1;HPM_P2
2023/09/18 00:00:11;;;;;;;0.30;0.30;;;19.20;66.20;;;;;;5030897;28;20067;-70
2023/09/18 00:02:38;;;;;;;0.25;0.20;;;19.10;66.20;;;;;;5031290;28;20052;-70
2023/09/18 00:05:05;;;;;;;1.20;0.57;;;19.10;66.00;;;;;;5047719;28;20031;-70
2023/09/18 00:07:31;;;;;;;0.40;0.40;;;18.90;65.90;;;;;;5048061;28;20048;-70
2023/09/18 00:09:57;;;;;;;0.45;0.32;;;18.90;66.60;;;;;;5032614;28;20033;-70
2023/09/18 00:12:23;;;;;;;1.80;1.00;;;18.90;66.60;;;;;;5047101;28;20368;-71
2023/09/18 00:14:50;;;;;;;1.20;0.95;;;18.90;66.60;;;;;;5014933;28;20040;-70
2023/09/18 00:17:17;;;;;;;0.45;0.43;;;18.90;66.70;;;;;;5032192;28;20034;-69
2023/09/18 00:19:43;;;;;;;0.70;0.65;;;19.00;66.70;;;;;;5047564;28;20061;-70
2023/09/18 00:22:09;;;;;;;0.98;0.43;;;19.00;66.50;;;;;;5031581;28;20037;-70
2023/09/18 00:24:35;;;;;;;1.35;1.08;;;19.00;66.40;;;;;;5032781;28;20396;-70
2023/09/18 00:27:01;;;;;;;;;;;19.00;66.10;;;;;;5032599;28;20045;-70
2023/09/18 00:29:27;;;;;;;0.40;0.30;;;19.00;66.10;;;;;;5032253;28;20393;-70
2023/09/18 00:31:53;;;;;;;0.30;0.30;;;18.90;66.50;;;;;;5031926;28;20071;-69
2023/09/18 00:34:19;;;;;;;0.28;0.28;;;18.90;66.70;;;;;;5032261;28;20037;-70
2023/09/18 00:36:45;;;;;;;2.15;0.63;;;18.90;67.00;;;;;;5030838;28;20042;-70
2023/09/18 00:39:11;;;;;;;1.17;0.75;;;18.90;66.90;;;;;;5032471;28;20049;-70
2023/09/18 00:41:37;;;;;;;1.08;0.45;;;18.90;67.30;;;;;;5031633;28;20033;-70
2023/09/18 00:44:05;;;;;;;;;;;18.90;67.40;;;;;;5033072;28;20030;-70
2023/09/18 00:46:32;;;;;;;0.57;0.50;;;18.90;67.30;;;;;;5030703;28;19920;-70
2023/09/18 00:48:59;;;;;;;0.50;0.50;;;18.80;67.50;;;;;;5047661;28;20044;-69
2023/09/18 00:51:25;;;;;;;0.55;0.40;;;18.80;67.90;;;;;;5031242;28;20037;-70
2023/09/18 00:53:52;;;;;;;0.65;0.45;;;18.80;67.90;;;;;;5047571;28;20045;-71
2023/09/18 00:56:20;;;;;;;0.70;0.45;;;18.80;68.20;;;;;;5031732;28;20048;-70
2023/09/18 00:58:46;;;;;;;4.57;0.47;;;18.80;67.60;;;;;;5030872;28;20029;-70
2023/09/18 01:01:16;;;;;;;0.70;0.38;;;18.80;68.20;;;;;;5046581;28;20038;-70
2023/09/18 01:03:42;;;;;;;1.38;0.63;;;18.70;68.30;;;;;;5030899;28;20124;-70
2023/09/18 01:06:08;;;;;;;0.85;0.43;;;18.80;68.50;;;;;;5016804;28;20083;-70
2023/09/18 01:08:34;;;;;;;;;;;18.80;68.60;;;;;;5036524;28;20095;-70
2023/09/18 01:11:08;;;;;;;0.57;0.30;;;18.70;68.60;;;;;;5035005;28;19921;-69
2023/09/18 01:14:12;;;;;;;0.88;0.45;;;18.70;68.50;;;;;;5051068;28;20254;-71
2023/09/18 01:16:50;;;;;;;0.95;0.68;;;18.70;68.00;;;;;;5035267;28;20041;-71
2023/09/18 01:19:16;;;;;;;1.40;0.70;;;18.70;67.60;;;;;;5050516;28;20049;-70
2023/09/18 01:21:45;;;;;;;0.63;0.50;;;18.60;67.40;;;;;;5050123;28;20041;-69
2023/09/18 01:24:11;;;;;;;1.10;0.98;;;18.60;68.10;;;;;;5035288;28;20034;-70
2023/09/18 01:26:37;;;;;;;0.28;0.25;;;18.60;68.00;;;;;;5050497;28;20041;-70
2023/09/18 01:29:04;;;;;;;0.30;0.30;;;18.60;68.00;;;;;;5034332;28;20041;-69
2023/09/18 01:31:29;;;;;;;0.68;0.40;;;18.60;68.00;;;;;;5034751;28;20096;-70
2023/09/18 01:33:56;;;;;;;1.38;1.00;;;18.50;68.30;;;;;;5035150;28;20046;-71
2023/09/18 01:36:24;;;;;;;1.00;0.73;;;18.40;67.90;;;;;;5050319;28;20452;-70
2023/09/18 01:38:50;;;;;;;4.28;0.95;;;18.40;67.90;;;;;;5035452;28;20042;-70
2023/09/18 01:41:17;;;;;;;0.85;0.60;;;18.40;67.90;;;;;;5033134;28;20037;-69
2023/09/18 01:43:43;;;;;;;;;;;18.40;68.10;;;;;;5017978;28;20095;-70
2023/09/18 01:46:09;;;;;;;1.35;0.75;;;18.30;68.20;;;;;;5033590;28;19961;-70
2023/09/18 01:48:36;;;;;;;1.70;0.95;;;18.20;67.80;;;;;;5050691;28;20038;-70
2023/09/18 01:51:02;;;;;;;1.33;0.65;;;18.20;68.40;;;;;;5034473;28;20100;-70
2023/09/18 01:53:28;;;;;;;;;;;18.20;68.60;;;;;;5050987;28;20398;-71
2023/09/18 01:55:54;;;;;;;2.90;1.65;;;18.20;68.40;;;;;;5033168;28;19913;-70
2023/09/18 01:58:20;;;;;;;0.85;0.43;;;18.20;68.80;;;;;;5050323;28;20033;-71
2023/09/18 02:00:46;;;;;;;2.58;1.42;;;18.20;69.00;;;;;;5049393;28;20049;-71
2023/09/18 02:03:12;;;;;;;1.63;1.17;;;18.20;69.00;;;;;;5033435;28;20391;-70
2023/09/18 02:05:41;;;;;;;2.47;1.88;;;18.20;69.30;;;;;;5034352;28;20076;-71
2023/09/18 02:08:07;;;;;;;2.25;1.17;;;18.10;69.30;;;;;;5050001;28;20116;-70
2023/09/18 02:10:33;;;;;;;0.88;0.65;;;18.20;69.50;;;;;;5032570;28;20038;-70
2023/09/18 02:12:59;;;;;;;2.03;0.98;;;18.20;69.70;;;;;;5034878;28;20386;-71
2023/09/18 02:15:25;;;;;;;1.27;1.08;;;18.20;69.70;;;;;;5033901;28;20041;-71
2023/09/18 02:17:52;;;;;;;0.63;0.32;;;18.20;69.60;;;;;;5033239;28;20042;-71
2023/09/18 02:20:18;;;;;;;1.08;0.70;;;18.10;69.50;;;;;;5032240;28;20456;-70
2023/09/18 02:22:46;;;;;;;;;;;18.10;69.90;;;;;;5035168;28;20064;-70
2023/09/18 02:25:13;;;;;;;0.73;0.50;;;18.20;69.90;;;;;;5033877;28;19921;-70
2023/09/18 02:27:39;;;;;;;;;;;18.10;69.80;;;;;;5034956;28;20029;-70
2023/09/18 02:30:06;;;;;;;0.35;0.30;;;18.20;69.80;;;;;;5032492;28;20258;-69
2023/09/18 02:32:32;;;;;;;0.88;0.70;;;18.10;70.00;;;;;;5049450;28;20532;-71
2023/09/18 02:34:58;;;;;;;0.50;0.40;;;18.10;70.40;;;;;;5032956;28;20509;-71
2023/09/18 02:37:24;;;;;;;0.95;0.68;;;18.10;70.70;;;;;;5032494;28;20040;-70
2023/09/18 02:39:50;;;;;;;;;;;18.10;70.70;;;;;;5034548;28;20041;-70
2023/09/18 02:42:17;;;;;;;0.90;0.55;;;18.10;70.50;;;;;;5031958;28;19991;-70
2023/09/18 02:44:43;;;;;;;;;;;18.10;70.60;;;;;;5050047;28;20120;-70
2023/09/18 02:47:09;;;;;;;3.90;1.23;;;18.00;70.30;;;;;;5032335;28;19923;-70
2023/09/18 02:49:35;;;;;;;1.10;0.95;;;18.00;70.40;;;;;;5032858;28;20321;-70
2023/09/18 02:52:01;;;;;;;0.70;0.38;;;18.00;70.60;;;;;;5033018;28;20120;-70
2023/09/18 02:54:27;;;;;;;0.80;0.65;;;17.90;70.70;;;;;;5034213;28;20037;-70
2023/09/18 02:56:53;;;;;;;1.10;0.68;;;18.00;70.50;;;;;;5033509;28;20041;-70
2023/09/18 02:59:19;;;;;;;1.80;1.25;;;18.00;70.60;;;;;;5033864;28;20478;-71
2023/09/18 03:01:45;;;;;;;1.00;0.88;;;18.00;70.50;;;;;;5048331;28;20415;-71
2023/09/18 03:04:11;;;;;;;1.38;0.85;;;18.00;70.10;;;;;;5033777;28;20029;-70
2023/09/18 03:06:39;;;;;;;1.08;0.68;;;18.10;70.20;;;;;;5033273;28;20041;-70
2023/09/18 03:09:05;;;;;;;0.40;0.32;;;18.10;70.20;;;;;;5033786;28;20067;-70
2023/09/18 03:11:31;;;;;;;2.55;0.80;;;18.10;70.40;;;;;;5031345;28;20526;-70
2023/09/18 03:13:57;;;;;;;0.55;0.45;;;18.10;70.50;;;;;;5033717;28;20042;-70
2023/09/18 03:16:23;;;;;;;0.45;0.30;;;18.10;70.40;;;;;;5033081;28;20033;-69
2023/09/18 03:18:50;;;;;;;1.40;1.08;;;18.10;70.60;;;;;;5031734;28;20053;-70
2023/09/18 03:21:16;;;;;;;0.88;0.73;;;18.10;70.50;;;;;;5014717;28;20116;-70
2023/09/18 03:23:42;;;;;;;1.88;0.73;;;18.10;70.80;;;;;;5048757;28;20038;-70
2023/09/18 03:26:08;;;;;;;1.00;0.77;;;18.10;70.90;;;;;;5048194;28;20056;-70
2023/09/18 03:28:34;;;;;;;1.75;0.85;;;18.10;71.10;;;;;;5032932;28;20442;-70
2023/09/18 03:31:00;;;;;;;3.95;1.65;;;18.10;71.00;;;;;;5031137;28;20045;-70
2023/09/18 03:33:26;;;;;;;;;;;18.10;70.90;;;;;;5049151;28;20071;-71
2023/09/18 03:35:58;;;;;;;1.25;0.68;;;18.10;70.60;;;;;;5032726;28;20015;-70
2023/09/18 03:38:24;;;;;;;1.00;0.65;;;18.10;70.30;;;;;;5032926;28;20471;-69
2023/09/18 03:40:51;;;;;;;0.80;0.63;;;18.00;70.40;;;;;;5047488;28;20048;-70
2023/09/18 03:43:17;;;;;;;1.92;0.75;;;18.00;70.30;;;;;;5031522;28;20033;-69
2023/09/18 03:45:43;;;;;;;0.95;0.40;;;18.00;70.30;;;;;;5032583;28;20482;-70
2023/09/18 03:48:10;;;;;;;;;;;17.90;69.80;;;;;;5033421;28;20386;-69
2023/09/18 03:50:36;;;;;;;0.75;0.30;;;17.80;69.50;;;;;;5030805;28;19920;-70
2023/09/18 03:53:03;;;;;;;1.80;1.23;;;17.80;69.60;;;;;;5031697;28;20057;-70
2023/09/18 03:55:29;;;;;;;3.38;1.05;;;17.70;69.30;;;;;;5031023;28;20073;-69
2023/09/18 03:57:55;;;;;;;1.23;0.70;;;17.70;70.10;;;;;;5031030;28;20153;-70
2023/09/18 04:00:23;;;;;;;0.63;0.52;;;17.70;70.30;;;;;;5012889;28;20037;-70
2023/09/18 04:02:49;;;;;;;1.02;0.47;;;17.70;70.60;;;;;;5031025;28;20045;-70
2023/09/18 04:05:15;;;;;;;;;;;17.70;70.50;;;;;;5030757;28;20445;-71
2023/09/18 04:07:45;;;;;;;1.23;0.45;;;17.80;70.50;;;;;;5030548;28;20007;-70
2023/09/18 04:10:18;;;;;;;0.85;0.70;;;17.70;70.80;;;;;;5013794;28;20045;-70
2023/09/18 04:12:46;;;;;;;5.35;1.27;;;17.80;71.00;;;;;;5031786;28;20034;-69
2023/09/18 04:15:15;;;;;;;1.55;0.50;;;17.80;70.70;;;;;;5031101;28;20033;-69
2023/09/18 04:17:41;;;;;;;3.30;1.13;;;17.90;71.50;;;;;;5031801;28;20422;-69
2023/09/18 04:20:08;;;;;;;;;;;17.90;71.60;;;;;;5030955;28;20065;-71
2023/09/18 04:22:34;;;;;;;0.98;0.65;;;17.80;71.30;;;;;;5030410;28;19967;-70
2023/09/18 04:25:00;;;;;;;1.17;0.55;;;17.80;71.80;;;;;;5030609;28;20029;-70
2023/09/18 04:27:26;;;;;;;2.63;0.55;;;17.80;72.20;;;;;;5030118;28;20088;-69
2023/09/18 04:29:52;;;;;;;0.50;0.40;;;17.80;72.10;;;;;;5013697;28;20069;-70
2023/09/18 04:32:18;;;;;;;1.63;0.90;;;17.80;72.20;;;;;;5045849;28;20060;-72
2023/09/18 04:34:45;;;;;;;2.33;1.23;;;17.80;72.20;;;;;;5030087;28;20045;-69
2023/09/18 04:37:11;;;;;;;0.90;0.77;;;17.80;72.30;;;;;;5030929;28;20036;-70
2023/09/18 04:39:37;;;;;;;3.45;1.02;;;17.80;72.30;;;;;;5030546;28;20037;-70
2023/09/18 04:42:04;;;;;;;1.60;1.17;;;17.80;72.40;;;;;;5034525;28;20464;-70
2023/09/18 04:44:30;;;;;;;1.58;0.90;;;17.80;71.50;;;;;;5033805;28;20034;-71
2023/09/18 04:46:57;;;;;;;2.30;0.90;;;17.80;72.10;;;;;;5034943;28;20091;-70
2023/09/18 04:49:24;;;;;;;0.20;0.20;;;17.80;72.10;;;;;;5033929;28;20060;-70
2023/09/18 04:51:50;;;;;;;1.15;0.68;;;17.80;72.10;;;;;;5033081;28;20034;-69
2023/09/18 04:54:16;;;;;;;1.20;1.08;;;17.80;72.00;;;;;;5033620;28;20042;-70
2023/09/18 04:56:42;;;;;;;0.52;0.47;;;17.80;71.90;;;;;;5034833;28;20441;-70
2023/09/18 04:59:08;;;;;;;1.48;0.77;;;17.80;71.70;;;;;;5035306;28;20448;-70
2023/09/18 05:01:34;;;;;;;;;;;17.80;72.50;;;;;;5034701;28;20088;-70
2023/09/18 05:04:00;;;;;;;0.68;0.68;;;17.80;71.50;;;;;;5035252;28;19924;-70
2023/09/18 05:06:26;;;;;;;1.58;1.00;;;17.70;71.40;;;;;;5034603;28;20037;-70
2023/09/18 05:08:53;;;;;;;;;;;17.80;71.70;;;;;;5017844;28;20045;-70
2023/09/18 05:11:19;;;;;;;1.02;0.63;;;17.80;71.40;;;;;;5034055;28;20343;-70
2023/09/18 05:13:46;;;;;;;3.08;1.05;;;17.80;71.50;;;;;;5033393;28;20048;-70
2023/09/18 05:16:13;;;;;;;3.75;1.60;;;17.80;71.70;;;;;;5032958;28;20025;-69
2023/09/18 05:18:40;;;;;;;0.77;0.57;;;17.80;71.70;;;;;;5034639;28;20052;-69
2023/09/18 05:21:09;;;;;;;0.22;0.22;;;17.80;71.60;;;;;;5033758;28;20498;-70
2023/09/18 05:23:36;;;;;;;0.20;0.20;;;17.90;71.40;;;;;;5033395;28;20041;-70
2023/09/18 05:26:03;;;;;;;1.05;0.68;;;18.00;71.50;;;;;;5049651;28;20482;-70
2023/09/18 05:28:29;;;;;;;1.33;0.57;;;18.00;71.40;;;;;;5049827;28;20045;-70
2023/09/18 05:30:55;;;;;;;1.02;0.40;;;18.10;71.70;;;;;;5033585;28;20083;-69
2023/09/18 05:33:21;;;;;;;0.85;0.57;;;18.00;71.70;;;;;;5034742;28;20497;-69
2023/09/18 05:35:47;;;;;;;3.63;1.40;;;18.00;71.60;;;;;;5034452;28;20034;-71
2023/09/18 05:38:14;;;;;;;1.55;1.02;;;18.10;71.60;;;;;;5033319;28;20041;-70
2023/09/18 05:40:41;;;;;;;1.77;1.17;;;18.20;70.90;;;;;;5033666;28;20034;-69
2023/09/18 05:43:07;;;;;;;1.38;0.70;;;18.20;71.40;;;;;;5034513;28;20042;-70
2023/09/18 05:45:34;;;;;;;1.90;0.93;;;18.30;71.50;;;;;;5034205;28;20037;-70
2023/09/18 05:48:07;;;;;;;0.38;0.35;;;18.30;71.50;;;;;;5049753;28;20096;-69
2023/09/18 05:50:38;;;;;;;3.42;1.95;;;18.40;71.60;;;;;;5032702;28;20045;-70
2023/09/18 05:53:04;;;;;;;1.17;0.80;;;18.40;71.40;;;;;;5033056;28;20041;-70
2023/09/18 05:55:31;;;;;;;0.90;0.43;;;18.50;71.80;;;;;;5032256;28;20504;-71
2023/09/18 05:57:58;;;;;;;0.90;0.82;;;18.50;71.80;;;;;;5016291;28;20029;-70
2023/09/18 06:00:25;;;;;;;0.75;0.55;;;18.50;71.70;;;;;;5031763;28;20048;-70
2023/09/18 06:02:51;;;;;;;1.30;1.20;;;18.60;71.70;;;;;;5033982;28;20037;-70
2023/09/18 06:05:21;;;;;;;5.80;0.73;;;18.70;71.30;;;;;;5032045;28;20033;-69
2023/09/18 06:08:05;;;;;;;2.38;1.13;;;18.80;71.50;;;;;;5016494;28;20033;-71
2023/09/18 06:10:31;;;;;;;1.40;1.00;;;18.80;72.10;;;;;;5048079;28;20037;-71
2023/09/18 06:12:58;;;;;;;2.85;1.90;;;18.80;72.20;;;;;;5032495;28;20449;-70
2023/09/18 06:15:24;;;;;;;3.90;0.50;;;18.90;72.40;;;;;;5033201;28;20087;-69
2023/09/18 06:17:50;;;;;;;1.15;0.60;;;19.00;72.20;;;;;;5033839;28;20037;-70
2023/09/18 06:20:17;;;;;;;0.57;0.40;;;19.00;71.90;;;;;;5032472;28;20054;-70
2023/09/18 06:22:43;;;;;;;0.90;0.68;;;19.10;71.70;;;;;;5033668;28;20446;-70
2023/09/18 06:25:14;;;;;;;0.73;0.70;;;19.30;71.60;;;;;;5033134;28;20121;-71
2023/09/18 06:27:42;;;;;;;0.68;0.55;;;19.40;71.40;;;;;;5032551;28;20387;-70
2023/09/18 06:30:09;;;;;;;1.45;1.10;;;19.60;71.50;;;;;;5048024;28;20330;-71
2023/09/18 06:32:36;;;;;;;1.27;1.17;;;19.70;70.60;;;;;;5032144;28;20071;-70
2023/09/18 06:35:03;;;;;;;0.20;0.20;;;19.80;71.10;;;;;;5033285;28;20112;-70
2023/09/18 06:37:29;;;;;;;0.50;0.30;;;19.90;70.60;;;;;;5033048;28;20084;-71
2023/09/18 06:39:56;;;;;;;1.02;0.57;;;19.90;71.20;;;;;;5033179;28;20033;-70
2023/09/18 06:42:22;;;;;;;1.13;0.63;;;20.00;71.20;;;;;;5032376;28;20124;-71
2023/09/18 06:44:48;;;;;;;;;;;20.10;71.10;;;;;;5032666;28;20529;-71
2023/09/18 06:47:15;;;;;;;0.65;0.65;;;20.20;70.80;;;;;;5032858;28;19995;-71
2023/09/18 06:49:42;;;;;;;0.75;0.50;;;20.30;70.50;;;;;;5031767;28;20038;-71
2023/09/18 06:52:09;;;;;;;1.98;0.77;;;20.30;70.00;;;;;;5032063;28;20033;-71
2023/09/18 06:54:36;;;;;;;0.32;0.30;;;20.40;69.90;;;;;;5031898;28;20072;-71
2023/09/18 06:57:03;;;;;;;0.63;0.40;;;20.40;70.00;;;;;;5047768;28;20025;-70
2023/09/18 06:59:29;;;;;;;0.73;0.32;;;20.50;69.60;;;;;;5033024;28;20037;-71
2023/09/18 07:01:56;;;;;;;1.92;0.93;;;20.70;69.90;;;;;;5030419;28;20128;-70
2023/09/18 07:04:22;;;;;;;0.35;0.35;;;20.70;69.70;;;;;;5030913;28;20029;-71
2023/09/18 07:06:48;;;;;;;0.20;0.20;;;20.80;69.40;;;;;;5032612;28;20033;-70
2023/09/18 07:09:14;;;;;;;0.47;0.47;;;20.90;69.40;;;;;;5032861;28;20042;-71
2023/09/18 07:11:40;;;;;;;0.63;0.52;;;20.90;69.60;;;;;;5047179;28;20041;-71
2023/09/18 07:14:07;;;;;;;0.25;0.22;;;20.90;69.50;;;;;;5032976;28;20092;-70
2023/09/18 07:16:34;;;;;;;1.00;0.43;;;21.00;69.50;;;;;;5030907;28;20037;-70
2023/09/18 07:19:01;;;;;;;1.30;0.47;;;21.10;69.60;;;;;;5047414;28;20057;-71
2023/09/18 07:21:29;;;;;;;0.82;0.30;;;21.20;69.40;;;;;;5030449;28;20033;-72
2023/09/18 07:23:55;;;;;;;0.98;0.75;;;21.30;68.50;;;;;;5031077;28;20030;-71
2023/09/18 07:26:21;;;;;;;;;;;21.50;69.10;;;;;;5032500;28;20077;-70
2023/09/18 07:28:47;;;;;;;0.52;0.30;;;21.60;69.10;;;;;;5014720;28;20433;-69
2023/09/18 07:31:14;;;;;;;0.80;0.40;;;21.80;68.40;;;;;;4995412;28;20503;-69
2023/09/18 07:33:41;;;;;;;1.25;0.75;;;22.40;66.90;;;;;;5011581;28;20434;-71
2023/09/18 07:36:09;;;;;;;0.52;0.43;;;22.90;66.00;;;;;;5011365;28;20034;-70
2023/09/18 07:38:37;;;;;;;1.33;0.75;;;23.50;64.80;;;;;;5011325;28;20049;-71
2023/09/18 07:41:03;;;;;;;0.63;0.40;;;24.10;62.70;;;;;;5010333;28;20442;-70
2023/09/18 07:43:29;;;;;;;0.55;0.52;;;24.60;60.00;;;;;;5011134;28;20042;-71
2023/09/18 07:45:56;;;;;;;;;;;25.10;60.10;;;;;;5011220;28;20049;-70
2023/09/18 07:48:23;;;;;;;0.52;0.50;;;25.60;59.00;;;;;;5012469;28;19929;-73
2023/09/18 07:50:49;;;;;;;0.50;0.50;;;26.20;56.20;;;;;;5011265;28;20042;-72
2023/09/18 07:53:16;;;;;;;2.15;1.13;;;26.70;54.00;;;;;;5010993;28;20037;-73
2023/09/18 07:55:43;;;;;;;1.95;0.75;;;27.00;53.30;;;;;;5010744;28;20591;-72
2023/09/18 07:58:09;;;;;;;0.43;0.38;;;27.30;52.70;;;;;;5011369;28;20041;-72
2023/09/18 08:00:35;;;;;;;1.15;0.70;;;27.10;51.90;;;;;;5010980;28;20044;-72
2023/09/18 08:03:02;;;;;;;1.25;0.73;;;27.00;52.80;;;;;;5010907;28;20042;-72
2023/09/18 08:05:28;;;;;;;0.40;0.40;;;27.00;52.60;;;;;;5010581;28;20088;-72
2023/09/18 08:07:59;;;;;;;0.75;0.50;;;26.90;51.80;;;;;;5012321;28;20038;-73
2023/09/18 08:10:26;;;;;;;1.13;0.82;;;27.00;52.50;;;;;;5011339;28;20056;-72
2023/09/18 08:12:52;;;;;;;0.68;0.50;;;27.50;50.40;;;;;;5010926;28;20466;-72
2023/09/18 08:15:38;;;;;;;0.90;0.70;;;28.40;50.00;;;;;;5010247;28;20556;-72
2023/09/18 08:18:05;;;;;;;0.50;0.50;;;29.10;46.90;;;;;;5010737;28;20053;-72
2023/09/18 08:20:32;;;;;;;1.23;0.90;;;29.70;45.40;;;;;;5009464;28;20042;-72
2023/09/18 08:23:03;;;;;;;4.22;1.58;;;30.40;43.70;;;;;;5011825;28;20046;-72
2023/09/18 08:25:29;;;;;;;1.23;0.80;;;30.90;41.30;;;;;;5011374;28;20042;-73
2023/09/18 08:27:55;;;;;;;1.08;0.70;;;31.40;39.70;;;;;;5010595;28;20045;-73
2023/09/18 08:30:21;;;;;;;1.40;1.08;;;31.80;39.30;;;;;;5010915;28;20088;-73
2023/09/18 08:32:47;;;;;;;2.72;1.23;;;32.10;38.50;;;;;;5010563;28;20085;-73
2023/09/18 08:35:14;;;;;;;0.80;0.60;;;32.90;37.60;;;;;;5009973;28;20450;-72
2023/09/18 08:37:58;;;;;;;1.63;1.17;;;33.50;35.50;;;;;;5010764;28;20034;-73
2023/09/18 08:40:25;;;;;;;1.90;1.42;;;34.10;34.40;;;;;;5009479;28;20038;-73
2023/09/18 08:42:53;;;;;;;1.23;0.93;;;34.60;33.00;;;;;;5010728;28;20096;-73
2023/09/18 08:48:45;;;;;;;0.85;0.40;;;35.60;31.10;;;;;;5012137;28;20092;-73
2023/09/18 08:51:11;;;;;;;0.75;0.75;;;36.20;30.00;;;;;;4992756;28;20041;-73
2023/09/18 08:53:38;;;;;;;1.00;0.60;;;36.70;29.50;;;;;;4994103;28;20093;-73
2023/09/18 08:56:06;;;;;;;1.10;0.75;;;37.20;29.00;;;;;;5010003;28;20041;-73
2023/09/18 08:58:35;;;;;;;1.52;1.42;;;37.70;27.90;;;;;;5010280;28;20060;-73
2023/09/18 09:01:03;;;;;;;1.35;0.77;;;38.20;27.10;;;;;;5009247;28;20517;-73
2023/09/18 09:03:30;;;;;;;0.85;0.60;;;38.50;26.40;;;;;;5010394;28;20044;-73
2023/09/18 09:06:00;;;;;;;1.50;0.77;;;38.90;25.80;;;;;;5009749;28;20376;-73
2023/09/18 09:08:28;;;;;;;0.82;0.75;;;39.20;25.70;;;;;;5010133;28;20038;-73
2023/09/18 09:10:57;;;;;;;1.35;1.05;;;39.60;25.00;;;;;;5009142;28;20410;-73
2023/09/18 09:13:27;;;;;;;2.05;0.98;;;40.00;24.70;;;;;;5010267;28;20030;-73
2023/09/18 09:15:56;;;;;;;1.40;1.05;;;40.10;24.20;;;;;;5010013;28;20026;-73
2023/09/18 09:18:49;;;;;;;1.45;1.00;;;39.30;24.60;;;;;;4993605;28;20136;-73
2023/09/18 09:21:16;;;;;;;1.63;1.00;;;38.00;25.70;;;;;;5009023;28;20057;-74
2023/09/18 09:24:02;;;;;;;1.80;1.35;;;38.40;25.80;;;;;;4993724;28;20040;-73
2023/09/18 09:26:29;;;;;;;2.00;1.35;;;39.50;24.80;;;;;;5012449;28;20042;-73
2023/09/18 09:28:55;;;;;;;0.57;0.57;;;40.30;23.70;;;;;;5013467;28;20052;-73
2023/09/18 09:31:30;;;;;;;1.80;1.38;;;40.80;23.40;;;;;;5012319;28;20124;-73
2023/09/18 09:33:58;;;;;;;3.70;1.43;;;41.30;22.70;;;;;;5013578;28;20034;-73
2023/09/18 09:36:24;;;;;;;0.60;0.60;;;40.90;21.70;;;;;;4996824;28;20080;-73
2023/09/18 09:38:57;;;;;;;1.35;1.05;;;40.80;22.00;;;;;;5013377;28;20041;-73
2023/09/18 09:41:23;;;;;;;1.35;1.00;;;41.10;22.50;;;;;;5012501;28;20525;-74
2023/09/18 09:43:51;;;;;;;3.33;1.02;;;41.30;22.70;;;;;;5013429;28;20060;-73
2023/09/18 09:46:18;;;;;;;0.70;0.70;;;41.50;22.00;;;;;;5014117;28;20030;-74
2023/09/18 09:49:04;;;;;;;2.03;0.93;;;41.70;21.60;;;;;;5014893;28;20052;-74
2023/09/18 09:51:31;;;;;;;1.23;0.98;;;41.30;22.20;;;;;;5012262;28;20030;-73
2023/09/18 09:54:00;;;;;;;1.05;0.90;;;41.90;21.40;;;;;;5014581;28;20046;-73
2023/09/18 09:57:06;;;;;;;0.50;0.50;;;42.50;20.60;;;;;;4996586;28;20030;-73
2023/09/18 09:59:35;;;;;;;1.17;1.07;;;41.40;21.70;;;;;;5014574;28;20100;-73
2023/09/18 10:02:02;;;;;;;1.27;1.13;;;40.40;22.90;;;;;;5013313;28;20040;-73
2023/09/18 10:04:31;;;;;;;0.70;0.60;;;40.00;23.70;;;;;;5013187;28;20038;-73
2023/09/18 10:07:21;;;;;;;2.00;1.50;;;39.50;23.90;;;;;;5012521;28;20030;-73
2023/09/18 10:09:48;;;;;;;1.20;0.70;;;38.80;24.30;;;;;;5014567;28;20038;-73
2023/09/18 10:12:20;;;;;;;1.55;1.35;;;38.20;24.90;;;;;;5011841;28;20092;-73
2023/09/18 10:14:48;;;;;;;0.73;0.70;;;37.80;25.70;;;;;;5012973;28;20069;-73
2023/09/18 10:17:19;;;;;;;0.60;0.60;;;37.50;26.00;;;;;;5013589;28;20434;-74
2023/09/18 10:20:09;;;;;;;1.40;1.05;;;37.20;26.20;;;;;;5012306;28;20108;-73
2023/09/18 10:22:57;;;;;;;2.15;1.25;;;37.40;26.60;;;;;;4996211;28;20059;-73
2023/09/18 10:25:41;;;;;;;1.88;0.90;;;38.30;25.30;;;;;;5012205;28;20097;-73
2023/09/18 10:28:08;;;;;;;1.20;1.10;;;38.50;25.60;;;;;;5012537;28;20041;-73
2023/09/18 10:30:37;;;;;;;0.45;0.45;;;37.90;25.40;;;;;;5012603;28;20084;-73
2023/09/18 10:33:03;;;;;;;2.35;1.75;;;37.20;27.10;;;;;;4996090;28;20495;-74
2023/09/18 10:35:30;;;;;;;0.63;0.52;;;36.70;27.40;;;;;;5012007;28;20409;-74
2023/09/18 10:37:57;;;;;;;1.02;0.85;;;36.40;27.90;;;;;;5012212;28;20037;-73
2023/09/18 10:40:27;;;;;;;1.63;1.02;;;36.30;27.80;;;;;;5011287;28;20079;-73
2023/09/18 10:42:57;;;;;;;1.52;1.08;;;35.90;28.30;;;;;;5013426;28;20042;-74
2023/09/18 10:45:23;;;;;;;0.82;0.77;;;35.60;28.50;;;;;;5011761;28;20038;-74
2023/09/18 10:47:51;;;;;;;0.70;0.70;;;35.50;28.90;;;;;;5012072;28;20042;-74
2023/09/18 10:50:36;;;;;;;0.93;0.65;;;35.20;29.80;;;;;;5010918;28;20030;-74
2023/09/18 10:53:03;;;;;;;0.82;0.80;;;35.00;29.40;;;;;;5012145;28;20034;-74
2023/09/18 10:55:29;;;;;;;0.75;0.73;;;35.10;29.30;;;;;;5011402;28;20042;-73
2023/09/18 10:57:58;;;;;;;0.73;0.65;;;35.00;29.70;;;;;;5011850;28;20069;-73
2023/09/18 11:00:43;;;;;;;1.35;0.98;;;34.80;30.20;;;;;;5011098;28;20537;-73
2023/09/18 11:03:28;;;;;;;1.55;1.13;;;34.50;30.80;;;;;;5013167;28;20034;-74
2023/09/18 11:06:15;;;;;;;1.43;1.00;;;34.30;31.70;;;;;;5011396;28;20072;-74
2023/09/18 11:09:03;;;;;;;2.25;1.48;;;34.30;31.60;;;;;;4995770;28;20034;-73
2023/09/18 11:11:32;;;;;;;1.45;0.90;;;34.00;32.60;;;;;;5010768;28;20034;-73
2023/09/18 11:13:59;;;;;;;0.98;0.80;;;33.90;32.70;;;;;;5011868;28;20124;-73
2023/09/18 11:16:49;;;;;;;0.98;0.60;;;33.90;33.40;;;;;;5012349;28;20026;-74
2023/09/18 11:19:42;;;;;;;1.05;0.95;;;33.90;32.60;;;;;;5011173;28;20506;-73
2023/09/18 11:22:10;;;;;;;1.13;0.70;;;34.00;32.90;;;;;;4994345;28;20470;-73
2023/09/18 11:24:36;;;;;;;1.33;0.95;;;34.20;33.30;;;;;;5013046;28;20438;-73
2023/09/18 11:27:03;;;;;;;1.20;0.82;;;34.50;32.20;;;;;;5012436;28;20403;-73
2023/09/18 11:29:31;;;;;;;1.38;0.93;;;34.30;31.50;;;;;;5012926;28;20070;-73
2023/09/18 11:31:57;;;;;;;1.55;1.17;;;34.80;31.30;;;;;;5010489;28;20514;-73
2023/09/18 11:34:44;;;;;;;1.23;0.82;;;35.80;29.50;;;;;;5011455;28;20038;-73
2023/09/18 11:37:31;;;;;;;2.05;0.85;;;35.50;29.60;;;;;;5012160;28;20026;-73
2023/09/18 11:39:59;;;;;;;0.60;0.60;;;34.50;31.60;;;;;;4994857;28;20520;-73
2023/09/18 11:42:26;;;;;;;3.90;1.67;;;33.90;32.30;;;;;;5011733;28;20029;-73
2023/09/18 11:44:54;;;;;;;1.27;0.93;;;33.30;33.30;;;;;;5012350;28;20117;-73
2023/09/18 11:47:26;;;;;;;2.05;1.85;;;32.90;33.70;;;;;;4994483;28;20478;-73
2023/09/18 11:50:14;;;;;;;0.90;0.60;;;32.70;35.30;;;;;;5010812;28;20045;-73
2023/09/18 11:52:40;;;;;;;0.63;0.57;;;32.40;35.80;;;;;;5010617;28;20049;-73
2023/09/18 11:55:08;;;;;;;0.63;0.63;;;32.20;36.80;;;;;;5011986;28;20049;-73
2023/09/18 11:57:38;;;;;;;0.40;0.40;;;32.00;36.60;;;;;;5009209;28;20386;-72
2023/09/18 12:00:12;;;;;;;1.45;1.15;;;31.80;37.10;;;;;;5009976;28;20038;-73
2023/09/18 12:02:42;;;;;;;0.70;0.70;;;31.60;37.60;;;;;;5011012;28;20109;-72
2023/09/18 12:05:27;;;;;;;1.08;0.60;;;31.40;38.10;;;;;;5010548;28;20062;-72
2023/09/18 12:07:54;;;;;;;0.82;0.75;;;31.20;38.70;;;;;;5010969;28;20148;-72
2023/09/18 12:10:21;;;;;;;0.50;0.50;;;31.00;39.30;;;;;;5009939;28;20042;-73
2023/09/18 12:12:47;;;;;;;1.08;0.98;;;30.80;39.20;;;;;;5011957;28;20553;-72
2023/09/18 12:15:16;;;;;;;1.27;0.80;;;30.70;39.70;;;;;;5010111;28;20042;-73
2023/09/18 12:17:43;;;;;;;0.73;0.60;;;30.60;39.70;;;;;;5010831;28;20025;-72
2023/09/18 12:20:19;;;;;;;0.52;0.47;;;30.50;40.30;;;;;;5009682;28;20070;-74
2023/09/18 12:22:50;;;;;;;2.58;1.20;;;30.50;40.40;;;;;;5010670;28;20042;-72
2023/09/18 12:25:18;;;;;;;1.13;0.70;;;30.50;40.00;;;;;;5010091;28;20096;-73
2023/09/18 12:27:45;;;;;;;1.33;1.08;;;30.50;39.40;;;;;;5011952;28;20533;-73
2023/09/18 12:30:14;;;;;;;0.75;0.40;;;30.50;39.40;;;;;;5009401;28;20061;-73
2023/09/18 12:32:41;;;;;;;0.52;0.50;;;30.50;39.70;;;;;;5010552;28;20037;-72
2023/09/18 12:35:07;;;;;;;2.92;1.50;;;30.50;40.40;;;;;;5010251;28;20038;-72
2023/09/18 12:37:53;;;;;;;0.95;0.73;;;30.50;40.30;;;;;;5010528;28;20083;-73
2023/09/18 12:40:38;;;;;;;1.98;1.17;;;30.50;40.30;;;;;;5010874;28;20046;-73
2023/09/18 12:43:06;;;;;;;1.90;1.70;;;30.70;40.40;;;;;;5010574;28;20069;-72
2023/09/18 12:45:32;;;;;;;1.60;1.02;;;31.30;39.40;;;;;;5010087;28;20029;-72
2023/09/18 12:47:59;;;;;;;0.95;0.75;;;32.20;37.70;;;;;;5010458;28;20386;-73
2023/09/18 12:50:26;;;;;;;0.70;0.45;;;32.80;35.90;;;;;;5009322;28;20042;-72
2023/09/18 12:52:52;;;;;;;1.23;0.93;;;32.90;35.10;;;;;;5010434;28;20330;-73
2023/09/18 12:55:37;;;;;;;2.03;0.90;;;32.50;36.00;;;;;;5009856;28;20030;-73
2023/09/18 12:58:07;;;;;;;1.75;1.25;;;32.20;36.80;;;;;;5011617;28;20475;-73
2023/09/18 13:00:35;;;;;;;1.85;0.65;;;32.10;37.40;;;;;;5009326;28;20030;-73